sensor_id;sensor_type;location;lat;lon;timestamp;P1;durP1;ratioP1;P2;durP2;ratioP2
2868;SDS011;1442;47.448;8.582;2022-07-29T00:02:05;3.20;;;1.50;;
2868;SDS011;1442;47.448;8.582;2022-07-29T00:04:33;2.65;;;1.60;;
2868;SDS011;1442;47.448;8.582;2022-07-29T00:07:01;1.85;;;1.67;;
2868;SDS011;1442;47.448;8.582;2022-07-29T00:09:28;7.97;;;1.50;;
2868;SDS011;1442;47.448;8.582;2022-07-29T00:11:55;3.35;;;1.63;;
2868;SDS011;1442;47.448;8.582;2022-07-29T00:14:23;2.65;;;1.60;;
2868;SDS011;1442;47.448;8.582;2022-07-29T00:16:52;6.65;;;1.40;;
2868;SDS011;1442;47.448;8.582;2022-07-29T00:19:19;2.70;;;1.50;;
2868;SDS011;1442;47.448;8.582;2022-07-29T00:21:46;3.30;;;1.63;;
2868;SDS011;1442;47.448;8.582;2022-07-29T00:24:14;2.90;;;1.13;;
2868;SDS011;1442;47.448;8.582;2022-07-29T00:26:41;3.40;;;1.70;;
2868;SDS011;1442;47.448;8.582;2022-07-29T00:29:08;1.50;;;1.40;;
2868;SDS011;1442;47.448;8.582;2022-07-29T00:31:35;2.30;;;1.45;;
2868;SDS011;1442;47.448;8.582;2022-07-29T00:34:04;2.65;;;1.33;;
2868;SDS011;1442;47.448;8.582;2022-07-29T00:36:51;2.28;;;1.63;;
2868;SDS011;1442;47.448;8.582;2022-07-29T00:39:17;1.95;;;1.52;;
2868;SDS011;1442;47.448;8.582;2022-07-29T00:41:44;3.22;;;1.55;;
2868;SDS011;1442;47.448;8.582;2022-07-29T00:44:11;2.97;;;1.85;;
2868;SDS011;1442;47.448;8.582;2022-07-29T00:46:38;2.05;;;1.23;;
2868;SDS011;1442;47.448;8.582;2022-07-29T00:49:07;1.42;;;1.33;;
2868;SDS011;1442;47.448;8.582;2022-07-29T00:51:34;2.75;;;1.50;;
2868;SDS011;1442;47.448;8.582;2022-07-29T00:54:02;1.98;;;1.42;;
2868;SDS011;1442;47.448;8.582;2022-07-29T00:56:29;1.55;;;1.25;;
2868;SDS011;1442;47.448;8.582;2022-07-29T00:58:56;2.88;;;1.40;;
2868;SDS011;1442;47.448;8.582;2022-07-29T01:01:24;3.30;;;1.48;;
2868;SDS011;1442;47.448;8.582;2022-07-29T01:03:51;1.65;;;1.50;;
2868;SDS011;1442;47.448;8.582;2022-07-29T01:06:19;2.20;;;1.60;;
2868;SDS011;1442;47.448;8.582;2022-07-29T01:08:47;1.85;;;1.33;;
2868;SDS011;1442;47.448;8.582;2022-07-29T01:11:14;1.60;;;1.50;;
2868;SDS011;1442;47.448;8.582;2022-07-29T01:13:41;2.58;;;1.40;;
2868;SDS011;1442;47.448;8.582;2022-07-29T01:16:10;1.27;;;1.17;;
2868;SDS011;1442;47.448;8.582;2022-07-29T01:18:41;1.95;;;1.60;;
2868;SDS011;1442;47.448;8.582;2022-07-29T01:21:18;3.40;;;1.30;;
2868;SDS011;1442;47.448;8.582;2022-07-29T01:23:55;2.97;;;1.50;;
2868;SDS011;1442;47.448;8.582;2022-07-29T01:26:31;1.45;;;1.35;;
2868;SDS011;1442;47.448;8.582;2022-07-29T01:29:02;1.13;;;1.13;;
2868;SDS011;1442;47.448;8.582;2022-07-29T01:31:31;2.30;;;1.50;;
2868;SDS011;1442;47.448;8.582;2022-07-29T01:34:02;2.85;;;1.58;;
2868;SDS011;1442;47.448;8.582;2022-07-29T01:36:31;2.03;;;1.30;;
2868;SDS011;1442;47.448;8.582;2022-07-29T01:39:02;1.52;;;1.30;;
2868;SDS011;1442;47.448;8.582;2022-07-29T01:43:59;1.58;;;1.00;;
2868;SDS011;1442;47.448;8.582;2022-07-29T01:46:30;1.75;;;1.20;;
2868;SDS011;1442;47.448;8.582;2022-07-29T01:49:00;2.03;;;1.48;;
2868;SDS011;1442;47.448;8.582;2022-07-29T01:51:29;1.80;;;1.40;;
2868;SDS011;1442;47.448;8.582;2022-07-29T01:53:58;1.75;;;1.15;;
2868;SDS011;1442;47.448;8.582;2022-07-29T01:56:27;1.80;;;1.10;;
2868;SDS011;1442;47.448;8.582;2022-07-29T01:58:57;2.20;;;1.30;;
2868;SDS011;1442;47.448;8.582;2022-07-29T02:01:25;1.42;;;1.23;;
2868;SDS011;1442;47.448;8.582;2022-07-29T02:03:55;1.95;;;1.33;;
2868;SDS011;1442;47.448;8.582;2022-07-29T02:06:23;1.63;;;1.45;;
2868;SDS011;1442;47.448;8.582;2022-07-29T02:08:52;6.85;;;1.50;;
2868;SDS011;1442;47.448;8.582;2022-07-29T02:11:19;1.58;;;1.30;;
2868;SDS011;1442;47.448;8.582;2022-07-29T02:13:46;1.38;;;1.27;;
2868;SDS011;1442;47.448;8.582;2022-07-29T02:16:14;2.97;;;1.48;;
2868;SDS011;1442;47.448;8.582;2022-07-29T02:18:42;1.40;;;1.30;;
2868;SDS011;1442;47.448;8.582;2022-07-29T02:21:12;2.03;;;1.50;;
2868;SDS011;1442;47.448;8.582;2022-07-29T02:23:43;2.22;;;1.55;;
2868;SDS011;1442;47.448;8.582;2022-07-29T02:26:11;1.42;;;1.25;;
2868;SDS011;1442;47.448;8.582;2022-07-29T02:28:38;1.80;;;1.25;;
2868;SDS011;1442;47.448;8.582;2022-07-29T02:31:06;2.38;;;1.33;;
2868;SDS011;1442;47.448;8.582;2022-07-29T02:33:34;1.40;;;1.30;;
2868;SDS011;1442;47.448;8.582;2022-07-29T02:36:02;3.63;;;1.20;;
2868;SDS011;1442;47.448;8.582;2022-07-29T02:38:31;1.45;;;1.35;;
2868;SDS011;1442;47.448;8.582;2022-07-29T02:41:17;1.92;;;1.58;;
2868;SDS011;1442;47.448;8.582;2022-07-29T02:43:46;2.80;;;1.50;;
2868;SDS011;1442;47.448;8.582;2022-07-29T02:46:16;2.33;;;1.45;;
2868;SDS011;1442;47.448;8.582;2022-07-29T02:48:50;4.05;;;1.60;;
2868;SDS011;1442;47.448;8.582;2022-07-29T02:51:19;2.65;;;1.15;;
2868;SDS011;1442;47.448;8.582;2022-07-29T02:53:51;3.00;;;1.40;;
2868;SDS011;1442;47.448;8.582;2022-07-29T02:56:20;4.53;;;1.52;;
2868;SDS011;1442;47.448;8.582;2022-07-29T02:58:52;2.40;;;1.40;;
2868;SDS011;1442;47.448;8.582;2022-07-29T03:01:22;2.65;;;1.40;;
2868;SDS011;1442;47.448;8.582;2022-07-29T03:03:50;1.35;;;1.25;;
2868;SDS011;1442;47.448;8.582;2022-07-29T03:06:19;2.47;;;1.60;;
2868;SDS011;1442;47.448;8.582;2022-07-29T03:08:47;1.88;;;1.25;;
2868;SDS011;1442;47.448;8.582;2022-07-29T03:11:16;2.13;;;1.35;;
2868;SDS011;1442;47.448;8.582;2022-07-29T03:13:43;5.20;;;1.45;;
2868;SDS011;1442;47.448;8.582;2022-07-29T03:16:10;1.30;;;1.20;;
2868;SDS011;1442;47.448;8.582;2022-07-29T03:18:38;1.00;;;1.00;;
2868;SDS011;1442;47.448;8.582;2022-07-29T03:21:06;1.25;;;1.13;;
2868;SDS011;1442;47.448;8.582;2022-07-29T03:23:33;2.40;;;1.20;;
2868;SDS011;1442;47.448;8.582;2022-07-29T03:26:00;3.92;;;1.30;;
2868;SDS011;1442;47.448;8.582;2022-07-29T03:28:29;1.65;;;1.30;;
2868;SDS011;1442;47.448;8.582;2022-07-29T03:30:56;2.35;;;1.20;;
2868;SDS011;1442;47.448;8.582;2022-07-29T03:33:23;2.30;;;1.30;;
2868;SDS011;1442;47.448;8.582;2022-07-29T03:35:51;1.58;;;1.20;;
2868;SDS011;1442;47.448;8.582;2022-07-29T03:38:18;1.75;;;1.05;;
2868;SDS011;1442;47.448;8.582;2022-07-29T03:40:46;1.40;;;1.23;;
2868;SDS011;1442;47.448;8.582;2022-07-29T03:43:15;1.35;;;1.25;;
2868;SDS011;1442;47.448;8.582;2022-07-29T03:45:45;2.03;;;1.30;;
2868;SDS011;1442;47.448;8.582;2022-07-29T03:48:15;3.05;;;1.27;;
2868;SDS011;1442;47.448;8.582;2022-07-29T03:50:43;2.10;;;1.45;;
2868;SDS011;1442;47.448;8.582;2022-07-29T03:53:11;1.58;;;1.27;;
2868;SDS011;1442;47.448;8.582;2022-07-29T03:55:40;2.22;;;1.50;;
2868;SDS011;1442;47.448;8.582;2022-07-29T03:58:08;2.25;;;1.30;;
2868;SDS011;1442;47.448;8.582;2022-07-29T04:00:35;2.55;;;1.65;;
2868;SDS011;1442;47.448;8.582;2022-07-29T04:03:04;2.03;;;1.17;;
2868;SDS011;1442;47.448;8.582;2022-07-29T04:05:32;2.15;;;1.33;;
2868;SDS011;1442;47.448;8.582;2022-07-29T04:07:59;2.67;;;1.27;;
2868;SDS011;1442;47.448;8.582;2022-07-29T04:10:26;1.77;;;1.30;;
2868;SDS011;1442;47.448;8.582;2022-07-29T04:12:53;2.28;;;1.50;;
2868;SDS011;1442;47.448;8.582;2022-07-29T04:15:20;2.00;;;1.80;;
2868;SDS011;1442;47.448;8.582;2022-07-29T04:17:47;3.97;;;2.00;;
2868;SDS011;1442;47.448;8.582;2022-07-29T04:20:15;4.63;;;1.80;;
2868;SDS011;1442;47.448;8.582;2022-07-29T04:22:43;5.85;;;1.75;;
2868;SDS011;1442;47.448;8.582;2022-07-29T04:25:10;1.42;;;1.30;;
2868;SDS011;1442;47.448;8.582;2022-07-29T04:27:37;4.07;;;1.60;;
2868;SDS011;1442;47.448;8.582;2022-07-29T04:30:24;1.90;;;1.30;;
2868;SDS011;1442;47.448;8.582;2022-07-29T04:32:51;4.10;;;1.40;;
2868;SDS011;1442;47.448;8.582;2022-07-29T04:35:22;1.50;;;1.40;;
2868;SDS011;1442;47.448;8.582;2022-07-29T04:37:49;1.45;;;1.35;;
2868;SDS011;1442;47.448;8.582;2022-07-29T04:40:16;2.75;;;1.38;;
2868;SDS011;1442;47.448;8.582;2022-07-29T04:42:43;2.63;;;1.60;;
2868;SDS011;1442;47.448;8.582;2022-07-29T04:45:11;5.68;;;1.65;;
2868;SDS011;1442;47.448;8.582;2022-07-29T04:47:38;3.13;;;1.42;;
2868;SDS011;1442;47.448;8.582;2022-07-29T04:50:05;7.43;;;1.80;;
2868;SDS011;1442;47.448;8.582;2022-07-29T04:52:34;1.55;;;1.40;;
2868;SDS011;1442;47.448;8.582;2022-07-29T04:55:01;1.30;;;1.20;;
2868;SDS011;1442;47.448;8.582;2022-07-29T04:57:28;2.58;;;1.45;;
2868;SDS011;1442;47.448;8.582;2022-07-29T04:59:56;3.05;;;1.75;;
2868;SDS011;1442;47.448;8.582;2022-07-29T05:02:23;3.58;;;1.80;;
2868;SDS011;1442;47.448;8.582;2022-07-29T05:04:50;2.28;;;1.77;;
2868;SDS011;1442;47.448;8.582;2022-07-29T05:07:17;2.50;;;1.77;;
2868;SDS011;1442;47.448;8.582;2022-07-29T05:09:45;1.35;;;1.20;;
2868;SDS011;1442;47.448;8.582;2022-07-29T05:12:13;1.65;;;1.55;;
2868;SDS011;1442;47.448;8.582;2022-07-29T05:14:40;6.25;;;1.30;;
2868;SDS011;1442;47.448;8.582;2022-07-29T05:17:07;1.70;;;1.20;;
2868;SDS011;1442;47.448;8.582;2022-07-29T05:19:34;5.70;;;1.30;;
2868;SDS011;1442;47.448;8.582;2022-07-29T05:22:01;3.15;;;1.40;;
2868;SDS011;1442;47.448;8.582;2022-07-29T05:24:28;1.63;;;1.10;;
2868;SDS011;1442;47.448;8.582;2022-07-29T05:26:57;4.13;;;1.40;;
2868;SDS011;1442;47.448;8.582;2022-07-29T05:29:24;1.42;;;1.20;;
2868;SDS011;1442;47.448;8.582;2022-07-29T05:31:51;1.20;;;1.10;;
2868;SDS011;1442;47.448;8.582;2022-07-29T05:34:18;5.25;;;1.38;;
2868;SDS011;1442;47.448;8.582;2022-07-29T05:36:46;1.70;;;1.42;;
2868;SDS011;1442;47.448;8.582;2022-07-29T05:39:13;6.13;;;1.50;;
2868;SDS011;1442;47.448;8.582;2022-07-29T05:41:40;4.07;;;1.60;;
2868;SDS011;1442;47.448;8.582;2022-07-29T05:44:08;1.98;;;1.52;;
2868;SDS011;1442;47.448;8.582;2022-07-29T05:46:36;11.57;;;1.73;;
2868;SDS011;1442;47.448;8.582;2022-07-29T05:49:03;3.28;;;1.00;;
2868;SDS011;1442;47.448;8.582;2022-07-29T05:51:31;3.67;;;1.52;;
2868;SDS011;1442;47.448;8.582;2022-07-29T05:53:58;2.03;;;1.60;;
2868;SDS011;1442;47.448;8.582;2022-07-29T05:56:26;3.60;;;1.40;;
2868;SDS011;1442;47.448;8.582;2022-07-29T05:58:53;2.95;;;1.23;;
2868;SDS011;1442;47.448;8.582;2022-07-29T06:01:22;4.28;;;1.40;;
2868;SDS011;1442;47.448;8.582;2022-07-29T06:03:49;2.75;;;1.50;;
2868;SDS011;1442;47.448;8.582;2022-07-29T06:06:16;3.55;;;1.58;;
2868;SDS011;1442;47.448;8.582;2022-07-29T06:08:43;1.38;;;1.27;;
2868;SDS011;1442;47.448;8.582;2022-07-29T06:11:10;3.95;;;1.52;;
2868;SDS011;1442;47.448;8.582;2022-07-29T06:13:37;3.58;;;1.60;;
2868;SDS011;1442;47.448;8.582;2022-07-29T06:16:04;1.75;;;1.42;;
2868;SDS011;1442;47.448;8.582;2022-07-29T06:18:33;1.92;;;1.65;;
2868;SDS011;1442;47.448;8.582;2022-07-29T06:21:00;7.93;;;1.80;;
2868;SDS011;1442;47.448;8.582;2022-07-29T06:23:28;2.78;;;1.50;;
2868;SDS011;1442;47.448;8.582;2022-07-29T06:25:55;2.63;;;1.88;;
2868;SDS011;1442;47.448;8.582;2022-07-29T06:28:22;1.60;;;1.50;;
2868;SDS011;1442;47.448;8.582;2022-07-29T06:30:49;4.40;;;1.65;;
2868;SDS011;1442;47.448;8.582;2022-07-29T06:33:16;6.85;;;1.73;;
2868;SDS011;1442;47.448;8.582;2022-07-29T06:35:45;2.22;;;1.52;;
2868;SDS011;1442;47.448;8.582;2022-07-29T06:38:12;5.25;;;1.80;;
2868;SDS011;1442;47.448;8.582;2022-07-29T06:40:40;4.35;;;1.55;;
2868;SDS011;1442;47.448;8.582;2022-07-29T06:43:27;3.00;;;1.50;;
2868;SDS011;1442;47.448;8.582;2022-07-29T06:45:56;5.03;;;1.30;;
2868;SDS011;1442;47.448;8.582;2022-07-29T06:48:23;5.47;;;1.60;;
2868;SDS011;1442;47.448;8.582;2022-07-29T06:50:52;2.90;;;1.50;;
2868;SDS011;1442;47.448;8.582;2022-07-29T06:53:19;1.92;;;1.67;;
2868;SDS011;1442;47.448;8.582;2022-07-29T06:55:46;5.63;;;1.45;;
2868;SDS011;1442;47.448;8.582;2022-07-29T06:58:13;4.82;;;1.50;;
2868;SDS011;1442;47.448;8.582;2022-07-29T07:00:42;5.53;;;2.05;;
2868;SDS011;1442;47.448;8.582;2022-07-29T07:03:10;4.70;;;2.00;;
2868;SDS011;1442;47.448;8.582;2022-07-29T07:05:37;5.50;;;2.05;;
2868;SDS011;1442;47.448;8.582;2022-07-29T07:08:06;6.25;;;2.38;;
2868;SDS011;1442;47.448;8.582;2022-07-29T07:10:33;1.83;;;1.60;;
2868;SDS011;1442;47.448;8.582;2022-07-29T07:13:00;1.70;;;1.60;;
2868;SDS011;1442;47.448;8.582;2022-07-29T07:15:28;4.60;;;2.17;;
2868;SDS011;1442;47.448;8.582;2022-07-29T07:17:55;3.80;;;1.75;;
2868;SDS011;1442;47.448;8.582;2022-07-29T07:20:22;1.85;;;1.60;;
2868;SDS011;1442;47.448;8.582;2022-07-29T07:22:49;4.00;;;1.90;;
2868;SDS011;1442;47.448;8.582;2022-07-29T07:25:18;5.50;;;2.30;;
2868;SDS011;1442;47.448;8.582;2022-07-29T07:27:45;2.80;;;1.73;;
2868;SDS011;1442;47.448;8.582;2022-07-29T07:30:12;1.50;;;1.40;;
2868;SDS011;1442;47.448;8.582;2022-07-29T07:32:40;7.28;;;2.13;;
2868;SDS011;1442;47.448;8.582;2022-07-29T07:35:07;13.55;;;2.63;;
2868;SDS011;1442;47.448;8.582;2022-07-29T07:37:35;3.55;;;2.17;;
2868;SDS011;1442;47.448;8.582;2022-07-29T07:40:02;1.70;;;1.60;;
2868;SDS011;1442;47.448;8.582;2022-07-29T07:42:31;4.32;;;2.22;;
2868;SDS011;1442;47.448;8.582;2022-07-29T07:44:58;8.18;;;2.08;;
2868;SDS011;1442;47.448;8.582;2022-07-29T07:47:25;4.80;;;1.95;;
2868;SDS011;1442;47.448;8.582;2022-07-29T07:49:52;6.28;;;2.78;;
2868;SDS011;1442;47.448;8.582;2022-07-29T07:52:20;3.30;;;1.80;;
2868;SDS011;1442;47.448;8.582;2022-07-29T07:54:47;5.95;;;1.85;;
2868;SDS011;1442;47.448;8.582;2022-07-29T07:57:14;5.00;;;2.03;;
2868;SDS011;1442;47.448;8.582;2022-07-29T07:59:43;5.18;;;2.05;;
2868;SDS011;1442;47.448;8.582;2022-07-29T08:02:10;3.17;;;2.13;;
2868;SDS011;1442;47.448;8.582;2022-07-29T08:04:37;3.17;;;1.98;;
2868;SDS011;1442;47.448;8.582;2022-07-29T08:07:05;4.15;;;2.35;;
2868;SDS011;1442;47.448;8.582;2022-07-29T08:09:34;4.72;;;2.00;;
2868;SDS011;1442;47.448;8.582;2022-07-29T08:12:02;2.97;;;2.15;;
2868;SDS011;1442;47.448;8.582;2022-07-29T08:14:30;4.60;;;2.38;;
2868;SDS011;1442;47.448;8.582;2022-07-29T08:16:59;7.72;;;2.47;;
2868;SDS011;1442;47.448;8.582;2022-07-29T08:19:26;5.53;;;2.60;;
2868;SDS011;1442;47.448;8.582;2022-07-29T08:21:53;5.28;;;2.63;;
2868;SDS011;1442;47.448;8.582;2022-07-29T08:24:20;11.40;;;3.28;;
2868;SDS011;1442;47.448;8.582;2022-07-29T08:27:05;5.43;;;2.60;;
2868;SDS011;1442;47.448;8.582;2022-07-29T08:29:32;5.07;;;2.83;;
2868;SDS011;1442;47.448;8.582;2022-07-29T08:32:01;5.53;;;2.65;;
2868;SDS011;1442;47.448;8.582;2022-07-29T08:34:28;8.73;;;3.05;;
2868;SDS011;1442;47.448;8.582;2022-07-29T08:36:55;6.93;;;3.15;;
2868;SDS011;1442;47.448;8.582;2022-07-29T08:39:22;8.30;;;2.85;;
2868;SDS011;1442;47.448;8.582;2022-07-29T08:41:49;5.95;;;2.80;;
2868;SDS011;1442;47.448;8.582;2022-07-29T08:44:17;4.45;;;2.50;;
2868;SDS011;1442;47.448;8.582;2022-07-29T08:46:44;5.90;;;2.45;;
2868;SDS011;1442;47.448;8.582;2022-07-29T08:49:12;6.05;;;2.63;;
2868;SDS011;1442;47.448;8.582;2022-07-29T08:51:40;7.93;;;2.45;;
2868;SDS011;1442;47.448;8.582;2022-07-29T08:54:08;3.08;;;2.28;;
2868;SDS011;1442;47.448;8.582;2022-07-29T08:56:36;3.97;;;2.50;;
2868;SDS011;1442;47.448;8.582;2022-07-29T08:59:03;10.63;;;3.08;;
2868;SDS011;1442;47.448;8.582;2022-07-29T09:01:32;9.65;;;3.03;;
2868;SDS011;1442;47.448;8.582;2022-07-29T09:03:59;4.38;;;2.67;;
2868;SDS011;1442;47.448;8.582;2022-07-29T09:06:30;7.15;;;2.80;;
2868;SDS011;1442;47.448;8.582;2022-07-29T09:08:58;5.25;;;2.63;;
2868;SDS011;1442;47.448;8.582;2022-07-29T09:11:26;4.00;;;2.60;;
2868;SDS011;1442;47.448;8.582;2022-07-29T09:13:53;4.68;;;2.17;;
2868;SDS011;1442;47.448;8.582;2022-07-29T09:16:20;4.53;;;2.47;;
2868;SDS011;1442;47.448;8.582;2022-07-29T09:18:47;3.92;;;2.20;;
2868;SDS011;1442;47.448;8.582;2022-07-29T09:21:15;5.15;;;2.60;;
2868;SDS011;1442;47.448;8.582;2022-07-29T09:24:06;2.50;;;2.05;;
2868;SDS011;1442;47.448;8.582;2022-07-29T09:26:34;4.22;;;2.30;;
2868;SDS011;1442;47.448;8.582;2022-07-29T09:29:07;4.22;;;2.50;;
2868;SDS011;1442;47.448;8.582;2022-07-29T09:31:36;6.88;;;2.90;;
2868;SDS011;1442;47.448;8.582;2022-07-29T09:34:03;7.32;;;2.95;;
2868;SDS011;1442;47.448;8.582;2022-07-29T09:36:31;3.03;;;2.20;;
2868;SDS011;1442;47.448;8.582;2022-07-29T09:39:06;7.85;;;3.15;;
2868;SDS011;1442;47.448;8.582;2022-07-29T09:41:46;4.38;;;2.90;;
2868;SDS011;1442;47.448;8.582;2022-07-29T09:44:14;5.78;;;2.08;;
2868;SDS011;1442;47.448;8.582;2022-07-29T09:46:51;4.88;;;2.33;;
2868;SDS011;1442;47.448;8.582;2022-07-29T09:49:18;2.55;;;2.15;;
2868;SDS011;1442;47.448;8.582;2022-07-29T09:51:46;10.52;;;3.50;;
2868;SDS011;1442;47.448;8.582;2022-07-29T09:54:25;3.67;;;2.72;;
2868;SDS011;1442;47.448;8.582;2022-07-29T09:56:53;4.53;;;2.35;;
2868;SDS011;1442;47.448;8.582;2022-07-29T09:59:21;4.05;;;2.60;;
2868;SDS011;1442;47.448;8.582;2022-07-29T10:01:51;4.47;;;3.05;;
2868;SDS011;1442;47.448;8.582;2022-07-29T10:04:19;8.25;;;2.60;;
2868;SDS011;1442;47.448;8.582;2022-07-29T10:06:56;5.35;;;2.40;;
2868;SDS011;1442;47.448;8.582;2022-07-29T10:09:24;6.03;;;3.03;;
2868;SDS011;1442;47.448;8.582;2022-07-29T10:12:04;3.63;;;2.92;;
2868;SDS011;1442;47.448;8.582;2022-07-29T10:14:32;4.65;;;3.22;;
2868;SDS011;1442;47.448;8.582;2022-07-29T10:16:59;3.22;;;2.67;;
2868;SDS011;1442;47.448;8.582;2022-07-29T10:19:27;5.50;;;2.97;;
2868;SDS011;1442;47.448;8.582;2022-07-29T10:21:55;6.32;;;3.20;;
2868;SDS011;1442;47.448;8.582;2022-07-29T10:24:24;4.13;;;2.72;;
2868;SDS011;1442;47.448;8.582;2022-07-29T10:26:51;4.88;;;3.03;;
2868;SDS011;1442;47.448;8.582;2022-07-29T10:29:19;4.68;;;3.05;;
2868;SDS011;1442;47.448;8.582;2022-07-29T10:31:48;5.78;;;2.92;;
2868;SDS011;1442;47.448;8.582;2022-07-29T10:34:19;6.43;;;3.05;;
2868;SDS011;1442;47.448;8.582;2022-07-29T10:36:52;5.15;;;2.90;;
2868;SDS011;1442;47.448;8.582;2022-07-29T10:39:27;6.53;;;2.63;;
2868;SDS011;1442;47.448;8.582;2022-07-29T10:42:06;4.00;;;2.90;;
2868;SDS011;1442;47.448;8.582;2022-07-29T10:44:39;5.55;;;3.03;;
2868;SDS011;1442;47.448;8.582;2022-07-29T10:47:06;3.42;;;2.72;;
2868;SDS011;1442;47.448;8.582;2022-07-29T10:49:34;4.28;;;2.70;;
2868;SDS011;1442;47.448;8.582;2022-07-29T10:52:02;6.43;;;2.83;;
2868;SDS011;1442;47.448;8.582;2022-07-29T10:54:38;4.72;;;2.40;;
2868;SDS011;1442;47.448;8.582;2022-07-29T10:57:17;4.28;;;2.55;;
2868;SDS011;1442;47.448;8.582;2022-07-29T10:59:45;3.05;;;2.50;;
2868;SDS011;1442;47.448;8.582;2022-07-29T11:05:01;4.43;;;2.60;;
2868;SDS011;1442;47.448;8.582;2022-07-29T11:07:28;3.60;;;2.42;;
2868;SDS011;1442;47.448;8.582;2022-07-29T11:12:49;4.50;;;2.40;;
2868;SDS011;1442;47.448;8.582;2022-07-29T11:15:18;6.00;;;2.38;;
2868;SDS011;1442;47.448;8.582;2022-07-29T11:18:02;4.85;;;2.30;;
2868;SDS011;1442;47.448;8.582;2022-07-29T11:20:30;4.43;;;2.50;;
2868;SDS011;1442;47.448;8.582;2022-07-29T11:22:57;2.97;;;2.30;;
2868;SDS011;1442;47.448;8.582;2022-07-29T11:25:24;4.78;;;2.47;;
2868;SDS011;1442;47.448;8.582;2022-07-29T11:27:54;4.47;;;2.45;;
2868;SDS011;1442;47.448;8.582;2022-07-29T11:30:21;3.17;;;2.33;;
2868;SDS011;1442;47.448;8.582;2022-07-29T11:33:08;4.20;;;1.95;;
2868;SDS011;1442;47.448;8.582;2022-07-29T11:36:06;2.83;;;2.22;;
2868;SDS011;1442;47.448;8.582;2022-07-29T11:38:33;9.65;;;2.92;;
2868;SDS011;1442;47.448;8.582;2022-07-29T11:41:19;2.42;;;2.15;;
2868;SDS011;1442;47.448;8.582;2022-07-29T11:43:48;6.25;;;2.42;;
2868;SDS011;1442;47.448;8.582;2022-07-29T11:46:17;5.38;;;2.40;;
2868;SDS011;1442;47.448;8.582;2022-07-29T11:48:44;3.20;;;2.28;;
2868;SDS011;1442;47.448;8.582;2022-07-29T11:51:12;2.97;;;2.35;;
2868;SDS011;1442;47.448;8.582;2022-07-29T11:53:39;3.20;;;2.28;;
2868;SDS011;1442;47.448;8.582;2022-07-29T11:56:07;2.35;;;2.08;;
2868;SDS011;1442;47.448;8.582;2022-07-29T11:58:35;3.83;;;2.30;;
2868;SDS011;1442;47.448;8.582;2022-07-29T12:01:03;4.63;;;2.40;;
2868;SDS011;1442;47.448;8.582;2022-07-29T12:03:31;2.20;;;2.10;;
2868;SDS011;1442;47.448;8.582;2022-07-29T12:05:59;3.38;;;2.65;;
2868;SDS011;1442;47.448;8.582;2022-07-29T12:08:26;5.60;;;2.80;;
2868;SDS011;1442;47.448;8.582;2022-07-29T12:10:53;6.43;;;2.47;;
2868;SDS011;1442;47.448;8.582;2022-07-29T12:13:21;8.70;;;2.70;;
2868;SDS011;1442;47.448;8.582;2022-07-29T12:15:52;5.40;;;2.95;;
2868;SDS011;1442;47.448;8.582;2022-07-29T12:18:20;3.70;;;2.60;;
2868;SDS011;1442;47.448;8.582;2022-07-29T12:20:48;4.97;;;2.80;;
2868;SDS011;1442;47.448;8.582;2022-07-29T12:23:15;4.07;;;2.65;;
2868;SDS011;1442;47.448;8.582;2022-07-29T12:25:43;10.57;;;2.78;;
2868;SDS011;1442;47.448;8.582;2022-07-29T12:28:11;11.75;;;3.10;;
2868;SDS011;1442;47.448;8.582;2022-07-29T12:30:39;3.28;;;2.45;;
2868;SDS011;1442;47.448;8.582;2022-07-29T12:33:11;4.95;;;2.28;;
2868;SDS011;1442;47.448;8.582;2022-07-29T12:35:40;3.70;;;2.70;;
2868;SDS011;1442;47.448;8.582;2022-07-29T12:38:08;9.57;;;2.67;;
2868;SDS011;1442;47.448;8.582;2022-07-29T12:40:36;3.67;;;2.80;;
2868;SDS011;1442;47.448;8.582;2022-07-29T12:43:09;3.35;;;2.70;;
2868;SDS011;1442;47.448;8.582;2022-07-29T12:45:37;5.63;;;2.30;;
2868;SDS011;1442;47.448;8.582;2022-07-29T12:48:05;4.05;;;2.33;;
2868;SDS011;1442;47.448;8.582;2022-07-29T12:50:33;8.20;;;3.28;;
2868;SDS011;1442;47.448;8.582;2022-07-29T12:53:12;7.35;;;2.53;;
2868;SDS011;1442;47.448;8.582;2022-07-29T12:55:40;7.18;;;3.33;;
2868;SDS011;1442;47.448;8.582;2022-07-29T12:58:07;4.72;;;2.35;;
2868;SDS011;1442;47.448;8.582;2022-07-29T13:00:35;6.03;;;2.63;;
2868;SDS011;1442;47.448;8.582;2022-07-29T13:03:02;11.02;;;2.72;;
2868;SDS011;1442;47.448;8.582;2022-07-29T13:05:39;6.18;;;3.10;;
2868;SDS011;1442;47.448;8.582;2022-07-29T13:08:12;4.18;;;2.83;;
2868;SDS011;1442;47.448;8.582;2022-07-29T13:10:39;5.55;;;2.58;;
2868;SDS011;1442;47.448;8.582;2022-07-29T13:13:07;6.57;;;3.22;;
2868;SDS011;1442;47.448;8.582;2022-07-29T13:15:35;4.05;;;2.88;;
2868;SDS011;1442;47.448;8.582;2022-07-29T13:18:02;4.93;;;3.28;;
2868;SDS011;1442;47.448;8.582;2022-07-29T13:20:30;6.57;;;3.58;;
2868;SDS011;1442;47.448;8.582;2022-07-29T13:22:57;12.13;;;5.03;;
2868;SDS011;1442;47.448;8.582;2022-07-29T13:25:26;15.55;;;5.80;;
2868;SDS011;1442;47.448;8.582;2022-07-29T13:27:53;15.52;;;5.80;;
2868;SDS011;1442;47.448;8.582;2022-07-29T13:30:21;16.20;;;6.00;;
2868;SDS011;1442;47.448;8.582;2022-07-29T13:32:48;13.38;;;6.18;;
2868;SDS011;1442;47.448;8.582;2022-07-29T13:35:15;11.00;;;6.38;;
2868;SDS011;1442;47.448;8.582;2022-07-29T13:37:43;13.75;;;5.45;;
2868;SDS011;1442;47.448;8.582;2022-07-29T13:40:11;10.23;;;5.55;;
2868;SDS011;1442;47.448;8.582;2022-07-29T13:42:40;12.63;;;5.25;;
2868;SDS011;1442;47.448;8.582;2022-07-29T13:45:07;7.60;;;4.40;;
2868;SDS011;1442;47.448;8.582;2022-07-29T13:47:35;5.45;;;4.28;;
2868;SDS011;1442;47.448;8.582;2022-07-29T13:50:03;6.10;;;4.60;;
2868;SDS011;1442;47.448;8.582;2022-07-29T13:52:30;6.82;;;4.38;;
2868;SDS011;1442;47.448;8.582;2022-07-29T13:54:57;15.05;;;4.68;;
2868;SDS011;1442;47.448;8.582;2022-07-29T13:57:24;6.57;;;4.15;;
2868;SDS011;1442;47.448;8.582;2022-07-29T13:59:53;5.95;;;4.70;;
2868;SDS011;1442;47.448;8.582;2022-07-29T14:02:20;4.93;;;4.35;;
2868;SDS011;1442;47.448;8.582;2022-07-29T14:04:47;8.23;;;4.68;;
2868;SDS011;1442;47.448;8.582;2022-07-29T14:07:14;5.50;;;4.03;;
2868;SDS011;1442;47.448;8.582;2022-07-29T14:09:42;8.85;;;4.20;;
2868;SDS011;1442;47.448;8.582;2022-07-29T14:12:09;7.55;;;4.32;;
2868;SDS011;1442;47.448;8.582;2022-07-29T14:14:36;7.50;;;4.35;;
2868;SDS011;1442;47.448;8.582;2022-07-29T14:17:05;5.70;;;4.03;;
2868;SDS011;1442;47.448;8.582;2022-07-29T14:19:32;5.75;;;3.65;;
2868;SDS011;1442;47.448;8.582;2022-07-29T14:22:02;4.47;;;3.45;;
2868;SDS011;1442;47.448;8.582;2022-07-29T14:24:29;3.83;;;2.88;;
2868;SDS011;1442;47.448;8.582;2022-07-29T14:26:56;6.20;;;3.25;;
2868;SDS011;1442;47.448;8.582;2022-07-29T14:29:23;5.85;;;3.33;;
2868;SDS011;1442;47.448;8.582;2022-07-29T14:31:51;4.22;;;3.20;;
2868;SDS011;1442;47.448;8.582;2022-07-29T14:34:19;6.68;;;3.33;;
2868;SDS011;1442;47.448;8.582;2022-07-29T14:36:46;5.32;;;3.28;;
2868;SDS011;1442;47.448;8.582;2022-07-29T14:39:13;4.13;;;3.58;;
2868;SDS011;1442;47.448;8.582;2022-07-29T14:41:41;7.47;;;3.85;;
2868;SDS011;1442;47.448;8.582;2022-07-29T14:44:09;5.50;;;3.92;;
2868;SDS011;1442;47.448;8.582;2022-07-29T14:46:36;8.05;;;4.40;;
2868;SDS011;1442;47.448;8.582;2022-07-29T14:49:03;6.00;;;4.15;;
2868;SDS011;1442;47.448;8.582;2022-07-29T14:51:32;6.75;;;4.50;;
2868;SDS011;1442;47.448;8.582;2022-07-29T14:53:59;7.78;;;5.03;;
2868;SDS011;1442;47.448;8.582;2022-07-29T14:56:26;7.18;;;5.50;;
2868;SDS011;1442;47.448;8.582;2022-07-29T14:58:55;8.30;;;5.60;;
2868;SDS011;1442;47.448;8.582;2022-07-29T15:01:22;7.25;;;5.63;;
2868;SDS011;1442;47.448;8.582;2022-07-29T15:03:49;8.48;;;5.15;;
2868;SDS011;1442;47.448;8.582;2022-07-29T15:06:16;6.75;;;4.53;;
2868;SDS011;1442;47.448;8.582;2022-07-29T15:08:45;8.20;;;5.53;;
2868;SDS011;1442;47.448;8.582;2022-07-29T15:11:12;6.60;;;5.53;;
2868;SDS011;1442;47.448;8.582;2022-07-29T15:13:39;7.07;;;5.60;;
2868;SDS011;1442;47.448;8.582;2022-07-29T15:16:06;9.82;;;5.65;;
2868;SDS011;1442;47.448;8.582;2022-07-29T15:18:34;6.82;;;5.47;;
2868;SDS011;1442;47.448;8.582;2022-07-29T15:21:03;6.43;;;5.45;;
2868;SDS011;1442;47.448;8.582;2022-07-29T15:23:31;10.60;;;5.15;;
2868;SDS011;1442;47.448;8.582;2022-07-29T15:26:01;8.40;;;5.50;;
2868;SDS011;1442;47.448;8.582;2022-07-29T15:28:28;6.15;;;4.90;;
2868;SDS011;1442;47.448;8.582;2022-07-29T15:30:55;9.70;;;4.60;;
2868;SDS011;1442;47.448;8.582;2022-07-29T15:33:23;5.72;;;4.70;;